Time;durP1;ratioP1;P1;durP2;ratioP2;P2;SDS_P1;SDS_P2;PMS_P1;PMS_P2;Temp;Humidity;BMP_temperature;BMP_pressure;BME280_temperature;BME280_humidity;BME280_pressure;Samples;Min_cycle;Max_cycle;Signal;HPM_P1;HPM_P2
2023/07/25 00:00:08;;;;;;;11.70;3.00;;;;;;;21.02;61.18;98904.77;109758;1285;23316;-79
2023/07/25 00:02:59;;;;;;;15.10;3.30;;;;;;;21.01;61.30;98908.98;109746;1280;22264;-79
2023/07/25 00:05:30;;;;;;;12.60;2.70;;;;;;;21.00;61.32;98914.95;109743;1280;22175;-80
2023/07/25 00:08:01;;;;;;;13.50;2.60;;;;;;;20.99;61.43;98914.17;109753;1280;22213;-79
2023/07/25 00:10:33;;;;;;;12.80;2.70;;;;;;;20.97;61.58;98918.42;109762;1281;22239;-80
2023/07/25 00:13:04;;;;;;;10.90;3.00;;;;;;;20.94;61.64;98914.35;109752;1285;23122;-79
2023/07/25 00:15:34;;;;;;;12.60;3.10;;;;;;;20.92;61.74;98924.66;109779;1285;23140;-80
2023/07/25 00:18:05;;;;;;;11.70;2.20;;;;;;;20.89;61.78;98926.84;109780;1285;22158;-79
2023/07/25 00:20:36;;;;;;;10.10;2.70;;;;;;;20.87;61.91;98933.45;109763;1280;22236;-80
2023/07/25 00:23:06;;;;;;;10.70;2.40;;;;;;;20.86;61.98;98942.13;109763;1283;23216;-79
2023/07/25 00:25:37;;;;;;;14.30;3.20;;;;;;;20.82;62.11;98947.35;109780;1282;22417;-80
2023/07/25 00:28:08;;;;;;;10.60;2.20;;;;;;;20.79;62.21;98947.64;109792;1285;22988;-79
2023/07/25 00:30:39;;;;;;;11.40;2.70;;;;;;;20.76;62.27;98949.21;109773;1277;22174;-81
2023/07/25 00:33:10;;;;;;;10.80;2.80;;;;;;;20.72;62.33;98949.78;109810;1280;22181;-80
2023/07/25 00:35:40;;;;;;;10.10;2.20;;;;;;;20.69;62.47;98949.80;109808;1283;22698;-80
2023/07/25 00:38:11;;;;;;;14.10;3.40;;;;;;;20.66;62.73;98954.36;109798;1273;22899;-80
2023/07/25 00:40:42;;;;;;;11.10;2.50;;;;;;;20.61;62.91;98958.46;109777;1285;22261;-80
2023/07/25 00:43:12;;;;;;;12.70;2.50;;;;;;;20.57;63.10;98959.63;109806;1280;22226;-80
2023/07/25 00:45:43;;;;;;;10.70;2.70;;;;;;;20.54;63.14;98956.29;109808;1270;22216;-80
2023/07/25 00:48:14;;;;;;;14.10;2.30;;;;;;;20.52;63.31;98960.53;109801;1285;22187;-80
2023/07/25 00:50:45;;;;;;;12.20;2.70;;;;;;;20.50;63.39;98962.18;109764;1277;22184;-81
2023/07/25 00:53:17;;;;;;;18.60;2.70;;;;;;;20.47;63.74;98962.88;109783;1282;22157;-80
2023/07/25 00:55:49;;;;;;;13.30;2.50;;;;;;;20.43;63.67;98969.06;109794;1277;23180;-80
2023/07/25 00:58:20;;;;;;;14.00;2.70;;;;;;;20.42;63.71;98970.80;109829;1280;22224;-81
2023/07/25 01:00:51;;;;;;;11.90;2.60;;;;;;;20.40;63.83;98962.61;109767;1280;23047;-81
2023/07/25 01:03:21;;;;;;;11.90;2.40;;;;;;;20.39;63.91;98960.67;109784;1282;22159;-80
2023/07/25 01:05:53;;;;;;;9.20;2.40;;;;;;;20.37;63.98;98961.89;109790;1285;22244;-79
2023/07/25 01:08:23;;;;;;;13.60;1.80;;;;;;;20.34;63.90;98961.65;109810;1285;22295;-80
2023/07/25 01:10:54;;;;;;;11.60;1.60;;;;;;;20.31;63.93;98964.61;109772;1285;22998;-80
2023/07/25 01:13:25;;;;;;;8.00;1.40;;;;;;;20.27;63.67;98958.74;109777;1280;22192;-80
2023/07/25 01:15:57;;;;;;;12.50;1.90;;;;;;;20.24;63.62;98962.20;109751;1285;22322;-80
2023/07/25 01:18:27;;;;;;;12.60;1.60;;;;;;;20.23;63.46;98958.54;109777;1285;22174;-80
2023/07/25 01:20:59;;;;;;;7.80;1.40;;;;;;;20.21;63.46;98955.15;109775;1285;22213;-80
2023/07/25 01:23:31;;;;;;;12.20;1.80;;;;;;;20.20;63.46;98956.02;109797;1277;23480;-81
2023/07/25 01:26:02;;;;;;;9.40;1.50;;;;;;;20.19;63.27;98957.64;109784;1285;22227;-81
2023/07/25 01:28:32;;;;;;;10.50;1.40;;;;;;;20.18;63.21;98951.48;109798;1285;22164;-80
2023/07/25 01:31:03;;;;;;;7.00;1.40;;;;;;;20.17;63.19;98948.11;109757;1285;22955;-80
2023/07/25 01:33:34;;;;;;;14.80;1.10;;;;;;;20.13;63.17;98941.98;109782;1285;22429;-80
2023/07/25 01:36:05;;;;;;;7.70;1.30;;;;;;;20.12;63.17;98946.35;109792;1284;22985;-80
2023/07/25 01:38:36;;;;;;;9.00;1.40;;;;;;;20.08;63.13;98955.55;109803;1277;23026;-80
2023/07/25 01:41:07;;;;;;;8.40;1.40;;;;;;;20.07;63.09;98954.57;109773;1273;22172;-80
2023/07/25 01:43:37;;;;;;;9.30;1.50;;;;;;;20.04;63.19;98958.05;109794;1284;22184;-80
2023/07/25 01:46:08;;;;;;;6.00;1.60;;;;;;;20.02;63.13;98969.77;109782;1284;22211;-80
2023/07/25 01:48:39;;;;;;;8.30;1.30;;;;;;;20.00;63.14;98975.08;109813;1277;22276;-80
2023/07/25 01:51:09;;;;;;;9.30;1.30;;;;;;;19.98;63.19;98977.13;109761;1281;22226;-80
2023/07/25 01:53:40;;;;;;;6.80;1.30;;;;;;;19.95;63.23;98978.73;109788;1277;22415;-81
2023/07/25 01:56:11;;;;;;;6.90;1.20;;;;;;;19.93;63.29;98978.70;109766;1280;22475;-80
2023/07/25 01:58:42;;;;;;;11.60;1.40;;;;;;;19.91;63.29;98977.81;109787;1285;22976;-80
2023/07/25 02:01:13;;;;;;;13.40;1.50;;;;;;;19.90;63.34;98971.63;109775;1285;22168;-81
2023/07/25 02:03:44;;;;;;;8.70;1.40;;;;;;;19.88;63.38;98966.65;109778;1280;22923;-80
2023/07/25 02:06:14;;;;;;;6.00;1.50;;;;;;;19.86;63.35;98967.60;109782;1281;22148;-80
2023/07/25 02:08:45;;;;;;;7.00;1.20;;;;;;;19.84;63.30;98963.76;109775;1277;22235;-80
2023/07/25 02:11:16;;;;;;;5.40;1.20;;;;;;;19.82;63.18;98961.73;109772;1281;22271;-80
2023/07/25 02:13:47;;;;;;;8.30;1.30;;;;;;;19.81;63.26;98962.15;109816;1280;22221;-81
2023/07/25 02:16:17;;;;;;;6.20;1.20;;;;;;;19.79;63.14;98960.27;109766;1282;22233;-80
2023/07/25 02:18:48;;;;;;;9.30;1.20;;;;;;;19.78;63.17;98968.02;109794;1278;22311;-80
2023/07/25 02:21:19;;;;;;;7.00;1.40;;;;;;;19.76;63.19;98971.54;109773;1280;22104;-80
2023/07/25 02:23:50;;;;;;;6.90;1.30;;;;;;;19.74;63.14;98968.38;109784;1277;22272;-80
2023/07/25 02:26:21;;;;;;;4.80;1.20;;;;;;;19.73;63.16;98961.37;109775;1280;22352;-80
2023/07/25 02:28:52;;;;;;;6.80;1.20;;;;;;;19.71;63.14;98964.65;109799;1281;22247;-80
2023/07/25 02:31:22;;;;;;;5.30;1.10;;;;;;;19.67;63.24;98964.09;109773;1280;22907;-80
2023/07/25 02:33:53;;;;;;;10.80;3.30;;;;;;;19.65;63.34;98966.81;109800;1281;22240;-80
2023/07/25 02:36:24;;;;;;;6.40;1.10;;;;;;;19.62;63.41;98969.25;109798;1280;22125;-80
2023/07/25 02:38:55;;;;;;;5.70;1.30;;;;;;;19.59;63.45;98970.10;109764;1283;22182;-80
2023/07/25 02:41:26;;;;;;;3.80;0.80;;;;;;;19.57;63.34;98968.23;109788;1280;22158;-80
2023/07/25 02:43:56;;;;;;;8.30;1.10;;;;;;;19.56;63.39;98979.17;109749;1285;22282;-80
2023/07/25 02:46:27;;;;;;;6.40;1.00;;;;;;;19.52;63.28;98979.26;109801;1285;22120;-80
2023/07/25 02:48:58;;;;;;;6.70;1.00;;;;;;;19.50;63.10;98985.41;109772;1285;22296;-80
2023/07/25 02:51:29;;;;;;;3.90;0.90;;;;;;;19.49;63.15;98993.23;109794;1285;22190;-81
2023/07/25 02:53:59;;;;;;;4.80;0.90;;;;;;;19.46;63.16;98997.27;109757;1285;22839;-81
2023/07/25 02:56:30;;;;;;;7.70;1.00;;;;;;;19.45;63.08;98989.36;109775;1273;22248;-81
2023/07/25 02:59:01;;;;;;;4.60;0.90;;;;;;;19.43;63.26;98990.08;109787;1280;22202;-81
2023/07/25 03:01:31;;;;;;;4.30;0.80;;;;;;;19.42;63.21;98991.64;109756;1282;22153;-81
2023/07/25 03:04:02;;;;;;;4.10;0.90;;;;;;;19.40;63.35;98993.17;109793;1285;22222;-81
2023/07/25 03:06:33;;;;;;;3.20;1.00;;;;;;;19.38;63.32;98992.73;109805;1284;23147;-81
2023/07/25 03:09:04;;;;;;;3.90;0.90;;;;;;;19.37;63.39;98992.36;109809;1284;22261;-81
2023/07/25 03:11:34;;;;;;;3.70;0.80;;;;;;;19.35;63.35;98986.52;109779;1285;23489;-81
2023/07/25 03:14:05;;;;;;;4.20;0.70;;;;;;;19.34;63.36;98984.25;108261;1285;22645;-81
2023/07/25 03:16:36;;;;;;;7.10;1.00;;;;;;;19.31;63.33;98985.02;107744;1284;24302;-80
2023/07/25 03:19:07;;;;;;;4.30;0.80;;;;;;;19.29;63.49;98985.22;107664;1285;22552;-80
2023/07/25 03:21:38;;;;;;;3.90;0.60;;;;;;;19.27;63.54;98990.80;107882;1277;22565;-81
2023/07/25 03:24:09;;;;;;;5.20;0.80;;;;;;;19.23;63.65;98994.62;107890;1285;22578;-81
2023/07/25 03:26:39;;;;;;;6.70;0.90;;;;;;;19.20;63.64;98994.63;107899;1285;25322;-81
2023/07/25 03:29:10;;;;;;;4.20;0.80;;;;;;;19.16;63.79;98997.77;107753;1281;25435;-81
2023/07/25 03:31:41;;;;;;;5.90;0.80;;;;;;;19.12;63.88;98996.64;107736;1282;24802;-81
2023/07/25 03:34:12;;;;;;;6.40;1.20;;;;;;;19.09;64.05;98995.40;107862;1281;22578;-81
2023/07/25 03:36:42;;;;;;;3.80;0.70;;;;;;;19.06;64.06;98997.21;107713;1285;23787;-81
2023/07/25 03:39:13;;;;;;;5.50;1.30;;;;;;;19.03;64.18;98992.95;107621;1285;22575;-81
2023/07/25 03:41:44;;;;;;;6.40;0.90;;;;;;;19.00;64.20;98995.27;107675;1277;22551;-81
2023/07/25 03:44:17;;;;;;;8.70;1.00;;;;;;;18.96;64.39;98996.17;107668;1285;23801;-81
2023/07/25 03:46:48;;;;;;;2.60;0.60;;;;;;;18.94;64.38;99004.77;107664;1285;23007;-80
2023/07/25 03:49:18;;;;;;;3.20;0.50;;;;;;;18.93;64.44;99009.30;107776;1285;26104;-81
2023/07/25 03:51:49;;;;;;;4.40;0.80;;;;;;;18.91;64.56;99006.04;107819;1285;22641;-81
2023/07/25 03:54:23;;;;;;;6.50;0.90;;;;;;;18.89;64.77;99008.09;109718;1285;22179;-81
2023/07/25 03:56:54;;;;;;;5.00;0.90;;;;;;;18.86;65.02;99006.42;109711;1285;22214;-81
2023/07/25 03:59:24;;;;;;;7.60;1.30;;;;;;;18.83;65.05;99002.39;109774;1285;22767;-81
2023/07/25 04:01:55;;;;;;;6.70;1.10;;;;;;;18.81;65.15;99011.90;109788;1285;22865;-81
2023/07/25 04:04:26;;;;;;;8.40;1.20;;;;;;;18.79;65.32;99014.50;109775;1285;22207;-81
2023/07/25 04:06:57;;;;;;;3.20;0.50;;;;;;;18.78;65.41;99008.73;109777;1285;22150;-81
2023/07/25 04:09:28;;;;;;;4.80;0.90;;;;;;;18.77;65.64;99008.23;109756;1285;22146;-81
2023/07/25 04:11:58;;;;;;;3.30;0.70;;;;;;;18.76;65.71;99011.40;109763;1285;22209;-81
2023/07/25 04:14:29;;;;;;;4.30;0.60;;;;;;;18.76;65.72;99020.56;109785;1283;22195;-81
2023/07/25 04:17:00;;;;;;;4.50;0.80;;;;;;;18.75;65.82;99024.15;109782;1285;22201;-81
2023/07/25 04:19:31;;;;;;;4.00;0.60;;;;;;;18.74;65.94;99029.52;109792;1273;22410;-81
2023/07/25 04:22:01;;;;;;;4.90;0.80;;;;;;;18.73;66.17;99044.16;109778;1285;23015;-81
2023/07/25 04:24:32;;;;;;;3.50;0.80;;;;;;;18.72;66.32;99047.06;109777;1285;22937;-81
2023/07/25 04:27:03;;;;;;;5.40;0.90;;;;;;;18.73;66.37;99054.52;109802;1285;22128;-81
2023/07/25 04:29:33;;;;;;;4.60;0.90;;;;;;;18.76;66.57;99063.95;109808;1285;22277;-81
2023/07/25 04:32:05;;;;;;;5.80;1.00;;;;;;;18.76;66.51;99063.95;109781;1279;22312;-81
2023/07/25 04:34:35;;;;;;;4.60;0.80;;;;;;;18.77;66.70;99060.41;109778;1285;22393;-81
2023/07/25 04:37:07;;;;;;;3.90;0.80;;;;;;;18.80;66.78;99063.35;109780;1285;22854;-81
2023/07/25 04:39:37;;;;;;;5.60;0.90;;;;;;;18.83;66.76;99057.59;109789;1277;22937;-81
2023/07/25 04:42:09;;;;;;;8.60;1.00;;;;;;;18.87;66.83;99061.78;109784;1283;22146;-81
2023/07/25 04:44:39;;;;;;;4.60;0.90;;;;;;;18.92;66.75;99062.83;109770;1285;22125;-81
2023/07/25 04:47:10;;;;;;;3.10;0.70;;;;;;;18.97;66.74;99072.34;109771;1282;22387;-81
2023/07/25 04:49:41;;;;;;;3.50;0.60;;;;;;;19.02;66.71;99058.38;109780;1285;22188;-82
2023/07/25 04:52:11;;;;;;;6.80;0.80;;;;;;;19.08;66.64;99041.25;109777;1285;22201;-81
2023/07/25 04:54:42;;;;;;;5.40;0.80;;;;;;;19.15;66.62;99038.40;109755;1285;23052;-81
2023/07/25 04:57:12;;;;;;;3.10;0.70;;;;;;;19.22;66.78;99044.16;109805;1285;22234;-82
2023/07/25 04:59:43;;;;;;;3.10;0.70;;;;;;;19.28;66.50;99037.20;109758;1285;22182;-81
2023/07/25 05:02:14;;;;;;;4.10;0.80;;;;;;;19.32;66.35;99035.93;109783;1285;22158;-81
2023/07/25 05:04:45;;;;;;;4.00;0.80;;;;;;;19.38;66.39;99044.32;109768;1285;22862;-81
2023/07/25 05:07:16;;;;;;;3.50;0.60;;;;;;;19.44;66.43;99055.55;109775;1285;22090;-81
2023/07/25 05:09:47;;;;;;;6.00;1.00;;;;;;;19.51;66.34;99067.46;109767;1285;22825;-81
2023/07/25 05:12:17;;;;;;;4.20;0.80;;;;;;;19.57;66.22;99058.66;109805;1285;23350;-81
2023/07/25 05:14:48;;;;;;;3.80;0.70;;;;;;;19.62;66.20;99061.02;109769;1283;22156;-81
2023/07/25 05:17:19;;;;;;;4.10;0.70;;;;;;;19.68;66.01;99058.44;109790;1285;22293;-81
2023/07/25 05:19:49;;;;;;;3.80;0.80;;;;;;;19.74;65.94;99046.11;109778;1277;22274;-81
2023/07/25 05:22:20;;;;;;;3.60;0.70;;;;;;;19.80;65.88;99046.51;109781;1283;22178;-81
2023/07/25 05:24:51;;;;;;;7.30;0.70;;;;;;;19.86;65.81;99047.17;109779;1279;22173;-81
2023/07/25 05:27:22;;;;;;;5.00;0.70;;;;;;;19.89;65.73;99044.78;109800;1282;23115;-82
2023/07/25 05:29:53;;;;;;;2.90;0.60;;;;;;;19.92;65.66;99044.20;109734;1282;22199;-81
2023/07/25 05:32:24;;;;;;;3.90;0.80;;;;;;;19.96;65.67;99053.59;109784;1284;22158;-82
2023/07/25 05:34:55;;;;;;;5.70;0.70;;;;;;;20.01;65.66;99064.25;109810;1285;22552;-81
2023/07/25 05:37:35;;;;;;;3.10;0.70;;;;;;;20.06;65.44;99063.89;109781;1282;22209;-81
2023/07/25 05:40:08;;;;;;;3.60;0.70;;;;;;;20.09;65.32;99056.79;109752;1279;22211;-81
2023/07/25 05:42:39;;;;;;;2.30;0.60;;;;;;;20.14;65.28;99053.22;109814;1277;22283;-81
2023/07/25 05:45:11;;;;;;;6.20;1.00;;;;;;;20.19;65.16;99061.02;109802;1282;22138;-82
2023/07/25 05:47:41;;;;;;;4.90;1.00;;;;;;;20.25;65.15;99055.38;109772;1285;22367;-82
2023/07/25 05:50:12;;;;;;;7.60;0.90;;;;;;;20.32;65.05;99050.33;109773;1285;22176;-81
2023/07/25 05:52:43;;;;;;;3.80;0.70;;;;;;;20.38;64.74;99051.98;109777;1274;22912;-81
2023/07/25 05:55:14;;;;;;;5.20;0.70;;;;;;;20.43;64.66;99054.83;109800;1285;22217;-82
2023/07/25 05:57:45;;;;;;;4.80;0.60;;;;;;;20.47;64.58;99057.45;109789;1285;22220;-81
2023/07/25 06:00:16;;;;;;;3.50;0.70;;;;;;;20.52;64.47;99051.66;109762;1285;22276;-81
2023/07/25 06:02:47;;;;;;;3.80;0.90;;;;;;;20.55;64.24;99041.14;109791;1277;22316;-82
2023/07/25 06:05:18;;;;;;;4.10;0.80;;;;;;;20.58;64.31;99048.06;109808;1280;22270;-81
2023/07/25 06:07:49;;;;;;;4.20;0.90;;;;;;;20.61;64.10;99047.76;109796;1284;22232;-81
2023/07/25 06:10:19;;;;;;;5.80;1.10;;;;;;;20.63;63.97;99057.16;109796;1283;23367;-82
2023/07/25 06:12:50;;;;;;;4.10;0.80;;;;;;;20.66;64.17;99055.14;109799;1285;22268;-81
2023/07/25 06:15:21;;;;;;;3.60;0.80;;;;;;;20.72;64.12;99059.07;109796;1281;22177;-81
2023/07/25 06:17:52;;;;;;;6.90;0.90;;;;;;;20.78;63.74;99062.55;109814;1285;22226;-81
2023/07/25 06:20:22;;;;;;;5.80;1.20;;;;;;;20.78;63.78;99055.80;109781;1285;22114;-81
2023/07/25 06:22:53;;;;;;;3.90;0.90;;;;;;;20.84;63.62;99054.86;109788;1284;22158;-81
2023/07/25 06:25:24;;;;;;;3.00;0.80;;;;;;;20.87;63.42;99059.41;109787;1283;22412;-81
2023/07/25 06:27:55;;;;;;;5.40;1.00;;;;;;;20.91;63.39;99060.90;109789;1285;22213;-81
2023/07/25 06:30:26;;;;;;;4.00;0.80;;;;;;;20.97;63.46;99060.66;109798;1273;22177;-81
2023/07/25 06:32:56;;;;;;;5.50;0.70;;;;;;;21.00;63.00;99066.84;109756;1285;22160;-82
2023/07/25 06:35:27;;;;;;;2.90;0.70;;;;;;;21.01;63.08;99071.34;109779;1285;22193;-81
2023/07/25 06:37:58;;;;;;;6.70;0.90;;;;;;;20.99;62.75;99071.23;109767;1285;22373;-82
2023/07/25 06:40:29;;;;;;;4.10;0.80;;;;;;;21.00;62.91;99072.82;109775;1285;22177;-81
2023/07/25 06:43:00;;;;;;;4.60;1.00;;;;;;;21.04;63.03;99081.33;109804;1285;22165;-82
2023/07/25 06:45:30;;;;;;;3.90;0.80;;;;;;;21.14;62.88;99085.41;109808;1274;22173;-82
2023/07/25 06:48:01;;;;;;;3.50;0.90;;;;;;;21.19;62.63;99091.54;109781;1285;22207;-82
2023/07/25 06:50:33;;;;;;;5.10;0.80;;;;;;;21.27;62.69;99088.94;109756;1277;22148;-81
2023/07/25 06:53:04;;;;;;;3.90;0.70;;;;;;;21.34;62.26;99090.98;108433;1282;22568;-82
2023/07/25 06:55:35;;;;;;;5.20;0.90;;;;;;;21.37;62.13;99091.41;107808;1285;22543;-81
2023/07/25 06:58:06;;;;;;;3.80;0.70;;;;;;;21.40;61.93;99091.51;107831;1285;22551;-81
2023/07/25 07:00:39;;;;;;;10.60;2.50;;;;;;;21.42;61.90;99094.92;107864;1277;22584;-81
2023/07/25 07:03:10;;;;;;;4.20;0.70;;;;;;;21.50;61.93;99098.17;107967;1285;23393;-82
2023/07/25 07:05:40;;;;;;;2.90;0.80;;;;;;;21.54;61.36;99095.80;107961;1278;22551;-82
2023/07/25 07:08:11;;;;;;;3.50;0.70;;;;;;;21.52;60.99;99095.20;107922;1285;22488;-81
2023/07/25 07:10:42;;;;;;;3.90;0.80;;;;;;;21.51;61.11;99092.53;108094;1285;22567;-81
2023/07/25 07:13:12;;;;;;;4.20;0.90;;;;;;;21.54;61.14;99091.38;107978;1279;22560;-82
2023/07/25 07:15:48;;;;;;;6.40;1.00;;;;;;;21.61;61.05;99095.39;107753;1283;22641;-81
2023/07/25 07:18:18;;;;;;;3.30;0.70;;;;;;;21.66;60.80;99093.13;107481;1285;22526;-82
2023/07/25 07:20:50;;;;;;;3.60;0.80;;;;;;;21.76;60.75;99089.67;107776;1279;24322;-80
2023/07/25 07:23:21;;;;;;;2.60;0.90;;;;;;;21.84;60.26;99081.73;107851;1285;22573;-80
2023/07/25 07:25:53;;;;;;;4.00;0.90;;;;;;;21.89;59.90;99072.85;107799;1282;22569;-81
2023/07/25 07:28:24;;;;;;;4.10;0.80;;;;;;;21.88;59.54;99069.94;107506;1279;22560;-81
2023/07/25 07:30:55;;;;;;;4.70;0.60;;;;;;;21.88;59.48;99059.11;107729;1278;22524;-82
2023/07/25 07:33:27;;;;;;;6.70;1.00;;;;;;;21.88;59.49;99042.55;107725;1281;23342;-81
2023/07/25 07:35:57;;;;;;;4.40;0.80;;;;;;;21.86;59.17;99031.02;107461;1285;26471;-81
2023/07/25 07:38:28;;;;;;;4.60;1.00;;;;;;;21.78;58.84;99012.87;107919;1285;22615;-81
2023/07/25 07:40:59;;;;;;;3.60;0.70;;;;;;;21.72;58.85;98993.96;107878;1283;22563;-81
2023/07/25 07:43:30;;;;;;;9.40;1.00;;;;;;;21.77;59.16;98984.10;107854;1281;25539;-81
2023/07/25 07:46:01;;;;;;;3.30;0.70;;;;;;;21.87;59.16;98971.55;107952;1279;22548;-81
2023/07/25 07:48:31;;;;;;;4.90;0.70;;;;;;;21.94;58.55;98980.54;107870;1285;24273;-81
2023/07/25 07:51:06;;;;;;;2.70;0.60;;;;;;;21.98;58.29;98995.90;107917;1285;22556;-81
2023/07/25 07:53:38;;;;;;;2.80;0.70;;;;;;;21.94;57.77;99007.48;107879;1273;22537;-81
2023/07/25 07:56:10;;;;;;;4.80;1.10;;;;;;;21.93;57.85;99009.98;107766;1284;22575;-81
2023/07/25 07:58:42;;;;;;;3.10;0.70;;;;;;;21.93;57.69;99012.38;107783;1270;25578;-81
2023/07/25 08:01:17;;;;;;;3.60;0.70;;;;;;;21.99;57.60;99013.88;107953;1281;24942;-81
2023/07/25 08:03:48;;;;;;;4.80;0.80;;;;;;;22.03;57.48;99024.44;107955;1270;24455;-81
2023/07/25 08:06:19;;;;;;;3.80;0.80;;;;;;;22.01;57.33;99027.95;107898;1280;22566;-81
2023/07/25 08:08:49;;;;;;;6.00;0.80;;;;;;;22.03;57.39;99034.52;107912;1280;22627;-81
2023/07/25 08:11:20;;;;;;;6.40;1.10;;;;;;;22.06;56.94;99039.19;107911;1283;24236;-81
2023/07/25 08:13:51;;;;;;;3.30;0.70;;;;;;;22.09;57.27;99038.61;107927;1278;22531;-81
2023/07/25 08:16:22;;;;;;;5.70;0.80;;;;;;;22.18;57.27;99034.96;107914;1285;22568;-82
2023/07/25 08:18:53;;;;;;;3.90;0.80;;;;;;;22.25;56.72;99034.31;107878;1285;22532;-81
2023/07/25 08:21:24;;;;;;;2.60;0.70;;;;;;;22.21;56.01;99044.55;107894;1285;24275;-81
2023/07/25 08:23:54;;;;;;;2.10;0.60;;;;;;;22.08;56.13;99044.04;107882;1278;22576;-81
2023/07/25 08:26:25;;;;;;;3.50;0.80;;;;;;;22.08;56.09;99051.96;107899;1283;25258;-81
2023/07/25 08:28:56;;;;;;;5.10;0.70;;;;;;;22.17;55.91;99059.10;107865;1278;24173;-81
2023/07/25 08:31:27;;;;;;;3.00;0.60;;;;;;;22.24;55.91;99061.23;107754;1283;24256;-81
2023/07/25 08:33:57;;;;;;;7.30;0.90;;;;;;;22.28;55.68;99066.30;107741;1282;23054;-81
2023/07/25 08:36:28;;;;;;;3.80;0.70;;;;;;;22.36;55.77;99068.69;107669;1283;22548;-81
2023/07/25 08:38:59;;;;;;;3.80;0.80;;;;;;;22.44;55.39;99073.52;107788;1280;25433;-81
2023/07/25 08:41:35;;;;;;;3.20;0.80;;;;;;;22.51;55.02;99068.90;107693;1285;22533;-81
2023/07/25 08:44:10;;;;;;;8.10;1.00;;;;;;;22.58;54.75;99061.46;107730;1285;24257;-81
2023/07/25 08:46:46;;;;;;;3.60;0.90;;;;;;;22.66;54.52;99055.27;107857;1285;22618;-81
2023/07/25 08:49:23;;;;;;;3.30;0.90;;;;;;;22.76;54.57;99058.02;107868;1280;22572;-83
2023/07/25 08:51:55;;;;;;;3.00;0.70;;;;;;;22.89;54.14;99062.91;109793;1280;22320;-82
2023/07/25 08:54:32;;;;;;;5.10;0.70;;;;;;;23.03;54.19;99060.71;109809;1280;22183;-82
2023/07/25 08:57:04;;;;;;;3.00;0.60;;;;;;;23.15;53.40;99054.88;109795;1280;22206;-82
2023/07/25 09:02:26;;;;;;;2.40;0.60;;;;;;;23.20;52.28;99051.95;109818;1283;22212;-82
2023/07/25 09:04:58;;;;;;;2.60;0.60;;;;;;;23.13;52.01;99043.15;109822;1280;22195;-81
2023/07/25 09:07:29;;;;;;;2.70;0.50;;;;;;;23.08;52.11;99044.20;109803;1282;22135;-83
2023/07/25 09:10:00;;;;;;;3.40;0.70;;;;;;;23.06;52.38;99047.06;109792;1285;22418;-82
2023/07/25 09:12:31;;;;;;;2.40;0.70;;;;;;;23.14;52.27;99046.98;109807;1285;23396;-82
2023/07/25 09:15:02;;;;;;;2.30;0.60;;;;;;;23.26;51.76;99051.73;109747;1285;22123;-81
2023/07/25 09:17:33;;;;;;;2.70;0.70;;;;;;;23.28;50.33;99057.98;109809;1274;22158;-82
2023/07/25 09:20:05;;;;;;;2.70;0.70;;;;;;;23.17;50.53;99055.84;109797;1285;22214;-82
2023/07/25 09:22:36;;;;;;;3.90;0.70;;;;;;;23.14;50.78;99050.20;109800;1285;22164;-81
2023/07/25 09:25:10;;;;;;;4.90;0.60;;;;;;;23.13;50.60;99051.96;109805;1283;22201;-82
2023/07/25 09:27:44;;;;;;;5.00;0.90;;;;;;;23.07;50.21;99056.80;109800;1270;22146;-83
2023/07/25 09:30:16;;;;;;;4.60;0.80;;;;;;;23.07;50.61;99066.48;109676;1285;22167;-82
2023/07/25 09:32:52;;;;;;;3.60;0.60;;;;;;;23.08;50.52;99069.13;109802;1280;22231;-83
2023/07/25 09:35:26;;;;;;;4.60;0.90;;;;;;;23.12;50.32;99075.96;109801;1280;22649;-82
2023/07/25 09:37:57;;;;;;;3.20;0.80;;;;;;;23.20;50.46;99076.73;109812;1285;22205;-82
2023/07/25 09:40:37;;;;;;;3.50;0.70;;;;;;;23.26;50.34;99062.08;109805;1285;22148;-82
2023/07/25 09:43:06;;;;;;;;;;;;;;;23.30;50.12;99056.02;109712;1283;22396;-81
2023/07/25 09:45:39;;;;;;;3.00;0.60;;;;;;;23.28;49.50;99051.03;109798;1285;22964;-81
2023/07/25 09:48:10;;;;;;;3.30;0.80;;;;;;;23.24;49.79;99043.59;109807;1282;22701;-82
2023/07/25 09:50:43;;;;;;;2.90;0.70;;;;;;;23.27;49.83;99044.09;109774;1278;22180;-81
2023/07/25 09:53:16;;;;;;;3.10;0.60;;;;;;;23.31;49.91;99035.75;109809;1285;22184;-81
2023/07/25 09:55:47;;;;;;;3.60;0.80;;;;;;;23.35;50.09;99027.05;109823;1285;22201;-82
2023/07/25 09:58:18;;;;;;;1.90;0.70;;;;;;;23.38;49.82;99025.16;109810;1283;22358;-83
2023/07/25 10:00:49;;;;;;;5.90;0.90;;;;;;;23.43;49.98;99023.41;109786;1285;22856;-82
2023/07/25 10:03:21;;;;;;;4.10;0.70;;;;;;;23.51;49.61;99021.89;109808;1280;22159;-82
2023/07/25 10:05:53;;;;;;;4.50;0.80;;;;;;;23.51;48.95;99010.73;109789;1285;22217;-82
2023/07/25 10:08:25;;;;;;;2.40;0.70;;;;;;;23.48;49.21;99006.98;109848;1284;22171;-82
2023/07/25 10:10:57;;;;;;;5.60;0.90;;;;;;;23.49;49.10;99006.32;109802;1285;22198;-81
2023/07/25 10:13:28;;;;;;;2.60;0.80;;;;;;;23.52;48.69;99007.85;109819;1269;22162;-81
2023/07/25 10:15:59;;;;;;;3.30;0.70;;;;;;;23.50;48.49;99010.71;109769;1280;22176;-82
2023/07/25 10:18:35;;;;;;;2.40;0.60;;;;;;;23.50;48.42;99006.86;109812;1285;22139;-81
2023/07/25 10:21:08;;;;;;;2.10;0.70;;;;;;;23.53;48.47;99005.40;109813;1283;22236;-83
2023/07/25 10:23:39;;;;;;;2.70;0.80;;;;;;;23.58;48.53;99000.31;109784;1279;22338;-82
2023/07/25 10:26:16;;;;;;;2.50;0.90;;;;;;;23.62;48.40;98995.80;109805;1285;22165;-80
2023/07/25 10:28:46;;;;;;;5.40;0.70;;;;;;;23.68;48.44;98998.23;109802;1285;23304;-82
2023/07/25 10:31:30;;;;;;;4.40;0.80;;;;;;;23.74;48.14;99009.63;109801;1281;23492;-81
2023/07/25 10:34:04;;;;;;;5.20;0.70;;;;;;;23.76;48.14;99009.23;109799;1279;22199;-81
2023/07/25 10:36:34;;;;;;;3.40;0.80;;;;;;;23.78;48.02;99006.92;109788;1279;22160;-80
2023/07/25 10:39:29;;;;;;;3.00;0.70;;;;;;;23.79;47.64;99002.08;109785;1285;22192;-81
2023/07/25 10:42:02;;;;;;;3.00;0.70;;;;;;;23.80;47.15;98992.09;109761;1285;22198;-81
2023/07/25 10:44:42;;;;;;;2.70;0.70;;;;;;;23.79;47.13;98977.15;109798;1285;22192;-81
2023/07/25 10:47:48;;;;;;;3.30;0.60;;;;;;;23.84;46.73;98977.65;109782;1285;22876;-81
2023/07/25 10:50:20;;;;;;;4.40;0.80;;;;;;;23.87;45.90;98981.25;109784;1280;22206;-81
2023/07/25 10:52:51;;;;;;;3.10;0.70;;;;;;;23.89;45.99;98982.08;109784;1285;22957;-81
2023/07/25 10:55:22;;;;;;;3.00;0.80;;;;;;;23.92;45.81;98980.06;109798;1285;22981;-80
2023/07/25 10:58:10;;;;;;;3.90;0.80;;;;;;;23.89;45.36;98984.81;109802;1280;22168;-80
2023/07/25 11:00:41;;;;;;;4.10;0.80;;;;;;;23.82;45.52;98984.05;109801;1284;22892;-81
2023/07/25 11:03:28;;;;;;;2.80;0.70;;;;;;;23.85;45.29;98986.94;109805;1285;22210;-81
2023/07/25 11:06:26;;;;;;;3.50;0.80;;;;;;;23.84;45.79;98985.90;109805;1280;22188;-80
2023/07/25 11:08:57;;;;;;;2.10;0.70;;;;;;;23.86;45.78;98988.73;109785;1285;22133;-81
2023/07/25 11:11:28;;;;;;;3.30;0.90;;;;;;;23.85;45.83;98986.77;109802;1285;22208;-81
2023/07/25 11:13:59;;;;;;;4.30;0.80;;;;;;;23.88;45.96;98996.88;109824;1285;22123;-81
2023/07/25 11:16:30;;;;;;;2.60;0.80;;;;;;;23.87;45.29;98997.08;109807;1280;22255;-81
2023/07/25 11:19:02;;;;;;;4.40;0.80;;;;;;;23.80;45.69;98997.99;105658;1284;5401054;-81
2023/07/25 11:21:39;;;;;;;4.40;0.90;;;;;;;23.77;45.94;98998.86;109777;1282;22179;-80
2023/07/25 11:24:11;;;;;;;3.60;1.00;;;;;;;23.72;46.02;98988.09;109788;1283;23382;-81
2023/07/25 11:26:50;;;;;;;3.50;0.90;;;;;;;23.66;46.06;98979.99;109797;1283;22223;-81
2023/07/25 11:29:22;;;;;;;3.20;0.90;;;;;;;23.59;46.35;98965.67;109779;1285;22300;-81
2023/07/25 11:31:53;;;;;;;4.40;1.00;;;;;;;23.55;46.77;98961.83;109813;1285;22142;-80
2023/07/25 11:34:24;;;;;;;3.50;1.10;;;;;;;23.53;46.84;98975.56;109810;1285;22147;-81
2023/07/25 11:36:54;;;;;;;3.60;1.30;;;;;;;23.49;46.88;98964.34;109805;1285;22167;-81
2023/07/25 11:39:25;;;;;;;2.80;0.80;;;;;;;23.51;46.67;98965.73;109776;1285;22609;-81
2023/07/25 11:41:57;;;;;;;4.10;0.90;;;;;;;23.50;46.83;98949.30;109822;1278;22333;-81
2023/07/25 11:44:28;;;;;;;3.30;0.90;;;;;;;23.56;46.98;98940.92;109796;1285;22154;-81
2023/07/25 11:46:59;;;;;;;4.10;1.00;;;;;;;23.61;46.81;98943.45;109819;1277;23184;-82